createdAt,value
2024-04-03T00:01:34.475Z,56.92
2024-04-03T00:04:01.016Z,56.97
2024-04-03T00:06:27.548Z,57.04
2024-04-03T00:08:53.977Z,57.10
2024-04-03T00:11:20.746Z,57.16
2024-04-03T00:13:47.263Z,57.21
2024-04-03T00:16:13.756Z,57.24
2024-04-03T00:18:40.339Z,57.31
2024-04-03T00:21:06.825Z,57.36
2024-04-03T00:23:33.385Z,57.39
2024-04-03T00:26:01.971Z,57.41
2024-04-03T00:28:30.626Z,57.43
2024-04-03T00:31:01.108Z,57.47
2024-04-03T00:33:27.754Z,57.53
2024-04-03T00:36:04.311Z,57.58
2024-04-03T00:38:30.778Z,57.65
2024-04-03T00:41:02.019Z,57.69
2024-04-03T00:43:30.256Z,57.75
2024-04-03T00:46:00.770Z,57.83
2024-04-03T00:48:30.337Z,57.90
2024-04-03T00:50:57.497Z,57.99
2024-04-03T00:53:25.305Z,58.02
2024-04-03T00:55:51.965Z,58.08
2024-04-03T00:58:18.515Z,58.17
2024-04-03T01:00:45.091Z,58.27
2024-04-03T01:03:11.915Z,58.33
2024-04-03T01:05:38.492Z,58.44
2024-04-03T01:08:05.472Z,58.58
2024-04-03T01:10:32.375Z,58.64
2024-04-03T01:13:02.547Z,58.73
2024-04-03T01:15:32.348Z,58.89
2024-04-03T01:17:58.827Z,58.97
2024-04-03T01:20:25.409Z,59.12
2024-04-03T01:22:52.601Z,59.20
2024-04-03T01:25:19.318Z,59.35
2024-04-03T01:27:45.813Z,59.44
2024-04-03T01:30:12.462Z,59.55
2024-04-03T01:32:45.405Z,59.66
2024-04-03T01:35:18.975Z,59.67
2024-04-03T01:37:45.561Z,59.76
2024-04-03T01:40:11.974Z,59.81
2024-04-03T01:42:38.778Z,59.82
2024-04-03T01:45:05.670Z,59.83
2024-04-03T01:47:32.225Z,59.86
2024-04-03T01:50:00.656Z,59.90
2024-04-03T01:52:27.069Z,59.94
2024-04-03T01:54:53.500Z,59.94
2024-04-03T01:57:19.956Z,60.01
2024-04-03T01:59:46.547Z,60.00
2024-04-03T02:02:13.030Z,59.98
2024-04-03T02:04:39.557Z,59.97
2024-04-03T02:07:06.043Z,59.96
2024-04-03T02:09:36.054Z,59.99
2024-04-03T02:12:04.479Z,59.97
2024-04-03T02:14:31.940Z,60.01
2024-04-03T02:16:59.152Z,60.10
2024-04-03T02:19:26.165Z,60.20
2024-04-03T02:21:53.359Z,60.30
2024-04-03T02:24:20.949Z,60.37
2024-04-03T02:26:47.926Z,60.40
2024-04-03T02:29:14.958Z,60.44
2024-04-03T02:31:41.784Z,60.48
2024-04-03T02:34:09.088Z,60.54
2024-04-03T02:36:35.559Z,60.63
2024-04-03T02:39:02.384Z,60.63
2024-04-03T02:41:28.882Z,60.60
2024-04-03T02:43:55.461Z,60.63
2024-04-03T02:46:21.933Z,60.65
2024-04-03T02:48:48.438Z,60.72
2024-04-03T02:51:15.828Z,60.74
2024-04-03T02:53:42.548Z,60.70
2024-04-03T02:56:10.185Z,60.76
2024-04-03T02:58:37.370Z,60.77
2024-04-03T03:01:07.570Z,60.80
2024-04-03T03:03:34.497Z,60.81
2024-04-03T03:06:05.342Z,60.87
2024-04-03T03:08:33.890Z,60.89
2024-04-03T03:11:02.986Z,60.88
2024-04-03T03:13:30.154Z,60.92
2024-04-03T03:15:59.430Z,60.84
2024-04-03T03:18:31.568Z,60.84
2024-04-03T03:20:58.262Z,60.89
2024-04-03T03:23:24.906Z,60.93
2024-04-03T03:25:55.615Z,60.96
2024-04-03T03:28:22.675Z,61.02
2024-04-03T03:30:53.948Z,61.07
2024-04-03T03:33:20.526Z,61.03
2024-04-03T03:35:58.223Z,61.07
2024-04-03T03:38:25.639Z,61.02
2024-04-03T03:40:55.378Z,61.03
2024-04-03T03:43:22.188Z,61.08
2024-04-03T03:45:51.469Z,61.07
2024-04-03T03:48:21.993Z,61.06
2024-04-03T03:51:07.018Z,60.98
2024-04-03T03:53:33.892Z,60.98
2024-04-03T03:56:09.809Z,60.93
2024-04-03T03:58:36.388Z,60.94
2024-04-03T04:01:06.229Z,60.92
2024-04-03T04:03:32.915Z,60.95
2024-04-03T04:06:00.294Z,61.06
2024-04-03T04:08:27.014Z,61.10
2024-04-03T04:10:57.543Z,61.14
2024-04-03T04:13:24.074Z,61.28
2024-04-03T04:15:51.326Z,61.34
2024-04-03T04:18:17.964Z,61.38
2024-04-03T04:20:44.600Z,61.40
2024-04-03T04:23:11.080Z,61.49
2024-04-03T04:25:37.589Z,61.48
2024-04-03T04:28:04.743Z,61.56
2024-04-03T04:30:31.243Z,61.57
2024-04-03T04:32:57.718Z,61.64
2024-04-03T04:35:24.156Z,61.64
2024-04-03T04:37:50.687Z,61.70
2024-04-03T04:40:18.966Z,61.80
2024-04-03T04:42:46.525Z,61.85
2024-04-03T04:45:13.696Z,61.89
2024-04-03T04:47:40.190Z,61.93
2024-04-03T04:50:10.596Z,61.95
2024-04-03T04:52:37.122Z,61.98
2024-04-03T04:55:04.169Z,62.00
2024-04-03T04:57:30.853Z,61.99
2024-04-03T04:59:57.576Z,61.99
2024-04-03T05:02:24.018Z,61.96
2024-04-03T05:04:51.074Z,61.92
2024-04-03T05:07:17.685Z,61.90
2024-04-03T05:09:48.988Z,61.88
2024-04-03T05:12:15.761Z,61.89
2024-04-03T05:14:42.219Z,61.83
2024-04-03T05:17:10.207Z,61.87
2024-04-03T05:19:36.858Z,61.77
2024-04-03T05:22:06.178Z,61.97
2024-04-03T05:24:33.088Z,61.65
2024-04-03T05:26:59.581Z,61.55
2024-04-03T05:29:26.089Z,61.50
2024-04-03T05:31:52.600Z,61.40
2024-04-03T05:34:19.425Z,61.23
2024-04-03T05:36:46.080Z,60.94
2024-04-03T05:39:12.517Z,60.58
2024-04-03T05:41:39.048Z,60.34
2024-04-03T05:44:06.077Z,60.17
2024-04-03T05:46:32.626Z,59.91
2024-04-03T05:48:59.138Z,59.69
2024-04-03T05:51:25.596Z,59.45
2024-04-03T05:53:52.034Z,59.24
2024-04-03T05:56:18.539Z,59.23
2024-04-03T05:58:45.612Z,59.02
2024-04-03T06:01:12.173Z,58.37
2024-04-03T06:03:38.716Z,58.27
2024-04-03T06:06:05.607Z,57.87
2024-04-03T06:08:32.115Z,57.68
2024-04-03T06:10:58.622Z,57.22
2024-04-03T06:13:25.232Z,56.63
2024-04-03T06:15:52.059Z,56.03
2024-04-03T06:18:18.535Z,55.60
2024-04-03T06:20:45.137Z,55.14
2024-04-03T06:23:13.078Z,54.70
2024-04-03T06:25:39.648Z,54.69
2024-04-03T06:28:06.498Z,54.36
2024-04-03T06:30:33.577Z,54.13
2024-04-03T06:33:00.195Z,53.96
2024-04-03T06:35:26.613Z,53.89
2024-04-03T06:37:53.122Z,53.70
2024-04-03T06:40:20.185Z,53.17
2024-04-03T06:42:47.003Z,52.81
2024-04-03T06:45:13.560Z,52.44
2024-04-03T06:47:40.119Z,51.98
2024-04-03T06:50:06.957Z,51.36
2024-04-03T06:52:33.607Z,50.81
2024-04-03T06:55:00.127Z,50.56
2024-04-03T06:57:26.663Z,50.02
2024-04-03T06:59:53.190Z,49.52
2024-04-03T07:02:19.665Z,49.01
2024-04-03T07:04:46.169Z,48.44
2024-04-03T07:07:12.683Z,47.90
2024-04-03T07:09:39.182Z,47.25
2024-04-03T07:12:06.342Z,46.26
2024-04-03T07:14:33.381Z,45.86
2024-04-03T07:16:59.918Z,44.84
2024-04-03T07:19:26.535Z,44.77
2024-04-03T07:21:54.597Z,44.52
2024-04-03T07:24:21.158Z,44.34
2024-04-03T07:26:48.981Z,43.96
2024-04-03T07:29:15.530Z,43.88
2024-04-03T07:31:45.014Z,43.73
2024-04-03T07:34:12.452Z,43.58
2024-04-03T07:36:39.531Z,43.56
2024-04-03T07:39:06.161Z,43.54
2024-04-03T07:41:34.329Z,43.29
2024-04-03T07:44:01.026Z,43.10
2024-04-03T07:46:28.788Z,42.88
2024-04-03T07:48:55.402Z,42.59
2024-04-03T07:51:22.107Z,42.27
2024-04-03T07:53:48.632Z,42.07
2024-04-03T07:56:15.373Z,41.98
2024-04-03T07:58:42.629Z,42.00
2024-04-03T08:01:09.784Z,42.14
2024-04-03T08:03:38.131Z,42.22
2024-04-03T08:06:06.974Z,42.29
2024-04-03T08:08:34.135Z,42.31
2024-04-03T08:11:02.643Z,42.53
2024-04-03T08:13:29.696Z,42.28
2024-04-03T08:16:07.179Z,42.11
2024-04-03T08:18:34.232Z,41.81
2024-04-03T08:21:07.715Z,41.87
2024-04-03T08:23:34.904Z,42.14
2024-04-03T08:26:10.454Z,42.56
2024-04-03T08:28:40.230Z,43.11
2024-04-03T08:31:14.414Z,42.89
2024-04-03T08:33:43.133Z,43.08
2024-04-03T08:36:11.726Z,42.46
2024-04-03T08:38:38.859Z,41.80
2024-04-03T08:41:06.495Z,41.59
2024-04-03T08:43:36.990Z,41.49
2024-04-03T08:46:03.905Z,41.77
2024-04-03T08:48:30.966Z,41.51
2024-04-03T08:50:57.927Z,41.51
2024-04-03T08:53:25.788Z,41.38
2024-04-03T08:55:54.903Z,41.30
2024-04-03T08:58:22.666Z,41.28
2024-04-03T09:00:50.966Z,41.01
2024-04-03T09:03:20.064Z,40.98
2024-04-03T09:05:50.656Z,40.87
2024-04-03T09:08:17.092Z,41.29
2024-04-03T09:11:02.514Z,41.05
2024-04-03T09:13:28.974Z,41.44
2024-04-03T09:15:56.080Z,41.00
2024-04-03T09:18:22.899Z,40.57
2024-04-03T09:20:53.847Z,40.41
2024-04-03T09:23:20.540Z,40.53
2024-04-03T09:25:47.527Z,40.22
2024-04-03T09:28:14.662Z,40.16
2024-04-03T09:30:50.512Z,40.16
2024-04-03T09:33:20.054Z,40.43
2024-04-03T09:35:46.648Z,40.25
2024-04-03T09:38:15.016Z,39.78
2024-04-03T09:40:42.808Z,39.36
2024-04-03T09:43:13.364Z,39.39
2024-04-03T09:45:42.263Z,38.90
2024-04-03T09:48:10.807Z,38.68
2024-04-03T09:50:41.868Z,38.07
2024-04-03T09:53:12.953Z,37.64
2024-04-03T09:55:39.903Z,36.86
2024-04-03T09:58:15.080Z,36.67
2024-04-03T10:00:51.363Z,36.99
2024-04-03T10:03:28.294Z,36.83
2024-04-03T10:06:18.327Z,36.87
2024-04-03T10:08:46.701Z,36.67
2024-04-03T10:11:16.748Z,37.22
2024-04-03T10:13:45.612Z,36.76
2024-04-03T10:16:14.782Z,36.61
2024-04-03T10:18:46.311Z,36.58
2024-04-03T10:21:14.228Z,36.25
2024-04-03T10:23:45.315Z,35.99
2024-04-03T10:26:13.933Z,35.80
2024-04-03T10:28:40.916Z,35.98
2024-04-03T10:31:12.159Z,35.44
2024-04-03T10:33:38.661Z,34.78
2024-04-03T10:36:05.876Z,34.65
2024-04-03T10:38:35.846Z,34.57
2024-04-03T10:41:03.129Z,34.44
2024-04-03T10:43:29.748Z,34.40
2024-04-03T10:45:56.272Z,34.78
2024-04-03T10:48:24.652Z,34.69
2024-04-03T10:50:52.076Z,34.07
2024-04-03T10:53:18.694Z,34.17
2024-04-03T10:55:48.357Z,34.74
2024-04-03T10:58:14.889Z,34.58
2024-04-03T11:00:44.895Z,34.34
2024-04-03T11:03:12.395Z,33.83
2024-04-03T11:05:39.751Z,33.64
2024-04-03T11:08:10.914Z,33.46
2024-04-03T11:10:38.709Z,33.62
2024-04-03T11:13:10.370Z,32.76
2024-04-03T11:15:38.808Z,32.38
2024-04-03T11:18:05.786Z,33.16
2024-04-03T11:20:37.512Z,33.30
2024-04-03T11:23:06.771Z,33.13
2024-04-03T11:25:33.590Z,32.96
2024-04-03T11:28:01.892Z,33.17
2024-04-03T11:30:29.075Z,33.32
2024-04-03T11:32:57.978Z,33.33
2024-04-03T11:35:25.458Z,33.58
2024-04-03T11:37:52.576Z,33.47
2024-04-03T11:40:19.235Z,33.59
2024-04-03T11:42:45.858Z,33.74
2024-04-03T11:45:12.418Z,33.36
2024-04-03T11:47:38.926Z,33.94
2024-04-03T11:50:07.239Z,33.65
2024-04-03T11:52:34.114Z,33.44
2024-04-03T11:55:00.636Z,33.55
2024-04-03T11:57:27.672Z,33.30
2024-04-03T11:59:54.214Z,33.23
2024-04-03T12:02:20.704Z,33.37
2024-04-03T12:04:47.667Z,33.58
2024-04-03T12:07:14.711Z,33.70
2024-04-03T12:09:43.532Z,33.97
2024-04-03T12:12:10.718Z,33.92
2024-04-03T12:14:37.675Z,34.13
2024-04-03T12:17:05.560Z,34.10
2024-04-03T12:19:41.163Z,33.87
2024-04-03T12:22:07.715Z,33.48
2024-04-03T12:24:34.900Z,33.88
2024-04-03T12:27:01.525Z,34.13
2024-04-03T12:29:28.385Z,34.27
2024-04-03T12:31:55.334Z,34.25
2024-04-03T12:34:21.762Z,34.14
2024-04-03T12:37:05.209Z,34.26
2024-04-03T12:39:34.912Z,33.82
2024-04-03T12:42:01.416Z,33.77
2024-04-03T12:44:28.292Z,33.63
2024-04-03T12:46:54.718Z,33.34
2024-04-03T12:49:24.915Z,33.23
2024-04-03T12:51:53.476Z,33.55
2024-04-03T12:54:20.345Z,33.49
2024-04-03T12:56:47.117Z,33.60
2024-04-03T12:59:14.168Z,33.35
2024-04-03T13:01:40.667Z,33.28
2024-04-03T13:04:12.386Z,33.48
2024-04-03T13:06:39.736Z,33.53
2024-04-03T13:09:06.409Z,33.38
2024-04-03T13:11:33.490Z,32.76
2024-04-03T13:13:59.966Z,32.48
2024-04-03T13:16:26.655Z,33.19
2024-04-03T13:18:53.166Z,33.54
2024-04-03T13:21:20.929Z,33.44
2024-04-03T13:23:47.467Z,33.42
2024-04-03T13:26:15.126Z,33.20
2024-04-03T13:28:41.847Z,33.07
2024-04-03T13:31:08.787Z,33.02
2024-04-03T13:33:44.036Z,33.12
2024-04-03T13:36:15.115Z,33.59
2024-04-03T13:38:42.404Z,33.73
2024-04-03T13:41:09.989Z,33.74
2024-04-03T13:43:36.622Z,33.93
2024-04-03T13:46:03.571Z,33.66
2024-04-03T13:48:32.734Z,33.57
2024-04-03T13:51:00.377Z,33.76
2024-04-03T13:53:27.515Z,34.08
2024-04-03T13:56:01.749Z,34.57
2024-04-03T13:58:28.376Z,34.94
2024-04-03T14:01:04.731Z,35.52
2024-04-03T14:03:35.743Z,36.08
2024-04-03T14:06:06.576Z,36.54
2024-04-03T14:08:36.283Z,37.40
2024-04-03T14:11:03.001Z,38.58
2024-04-03T14:13:29.473Z,38.97
2024-04-03T14:15:55.939Z,40.15
2024-04-03T14:18:23.964Z,41.39
2024-04-03T14:20:50.519Z,42.55
2024-04-03T14:23:17.114Z,43.10
2024-04-03T14:25:44.060Z,43.12
2024-04-03T14:28:11.552Z,43.40
2024-04-03T14:30:42.812Z,43.87
2024-04-03T14:33:09.434Z,43.76
2024-04-03T14:35:36.250Z,44.42
2024-04-03T14:38:06.032Z,44.28
2024-04-03T14:40:32.912Z,45.63
2024-04-03T14:43:06.519Z,46.62
2024-04-03T14:45:33.593Z,46.89
2024-04-03T14:48:00.134Z,47.32
2024-04-03T14:50:26.685Z,47.78
2024-04-03T14:52:54.976Z,48.90
2024-04-03T14:55:21.508Z,49.46
2024-04-03T14:57:49.069Z,50.21
2024-04-03T15:00:15.624Z,50.55
2024-04-03T15:02:42.086Z,50.92
2024-04-03T15:05:10.058Z,51.13
2024-04-03T15:07:36.743Z,51.78
2024-04-03T15:10:03.632Z,51.98
2024-04-03T15:12:30.145Z,52.35
2024-04-03T15:14:56.980Z,52.52
2024-04-03T15:17:26.358Z,53.77
2024-04-03T15:19:54.019Z,53.62
2024-04-03T15:22:22.026Z,54.01
2024-04-03T15:24:49.544Z,54.57
2024-04-03T15:27:19.722Z,54.48
2024-04-03T15:29:46.403Z,54.23
2024-04-03T15:32:13.630Z,55.12
2024-04-03T15:34:46.349Z,55.06
2024-04-03T15:37:14.094Z,55.72
2024-04-03T15:39:41.277Z,56.00
2024-04-03T15:42:08.113Z,56.54
2024-04-03T15:44:35.440Z,57.07
2024-04-03T15:47:04.838Z,57.09
2024-04-03T15:49:32.032Z,57.02
2024-04-03T15:51:58.710Z,58.33
2024-04-03T15:54:25.885Z,58.59
2024-04-03T15:56:54.080Z,58.82
2024-04-03T15:59:23.963Z,59.62
2024-04-03T16:01:52.086Z,59.61
2024-04-03T16:04:18.749Z,60.36
2024-04-03T16:06:46.245Z,60.86
2024-04-03T16:09:16.699Z,61.10
2024-04-03T16:11:48.176Z,60.16
2024-04-03T16:14:16.109Z,60.38
2024-04-03T16:16:43.309Z,61.03
2024-04-03T16:19:09.882Z,61.34
2024-04-03T16:21:36.734Z,61.88
2024-04-03T16:24:03.569Z,62.19
2024-04-03T16:26:30.105Z,62.95
2024-04-03T16:28:56.563Z,63.24
2024-04-03T16:31:23.744Z,63.62
2024-04-03T16:33:50.320Z,63.92
2024-04-03T16:36:16.908Z,63.60
2024-04-03T16:38:43.487Z,63.81
2024-04-03T16:41:10.035Z,63.64
2024-04-03T16:43:43.548Z,64.22
2024-04-03T16:46:11.281Z,64.69
2024-04-03T16:48:37.886Z,64.98
2024-04-03T16:51:04.893Z,65.35
2024-04-03T16:53:31.416Z,65.16
2024-04-03T16:55:58.619Z,65.50
2024-04-03T16:58:25.706Z,65.59
2024-04-03T17:01:09.236Z,65.86
2024-04-03T17:03:43.821Z,66.08
2024-04-03T17:06:12.762Z,66.31
2024-04-03T17:08:39.521Z,66.41
2024-04-03T17:11:09.397Z,67.06
2024-04-03T17:13:35.941Z,67.02
2024-04-03T17:16:02.731Z,67.27
2024-04-03T17:18:29.217Z,67.41
2024-04-03T17:20:55.816Z,67.80
2024-04-03T17:23:22.301Z,67.66
2024-04-03T17:25:48.929Z,67.71
2024-04-03T17:28:15.471Z,68.04
2024-04-03T17:30:42.046Z,68.12
2024-04-03T17:33:08.636Z,68.37
2024-04-03T17:35:35.220Z,68.60
2024-04-03T17:38:03.576Z,68.82
2024-04-03T17:40:31.597Z,68.84
2024-04-03T17:42:58.264Z,69.21
2024-04-03T17:45:24.931Z,69.26
2024-04-03T17:47:51.451Z,69.17
2024-04-03T17:50:18.230Z,69.56
2024-04-03T17:52:45.123Z,69.42
2024-04-03T17:55:11.742Z,69.60
2024-04-03T17:57:38.982Z,69.62
2024-04-03T18:00:06.577Z,69.70
2024-04-03T18:02:40.088Z,69.94
2024-04-03T18:05:07.043Z,70.05
2024-04-03T18:07:33.825Z,69.94
2024-04-03T18:10:01.025Z,70.09
2024-04-03T18:12:27.620Z,70.07
2024-04-03T18:14:54.469Z,70.06
2024-04-03T18:17:21.800Z,70.07
2024-04-03T18:19:49.343Z,70.43
2024-04-03T18:22:18.917Z,70.46
2024-04-03T18:24:47.482Z,70.55
2024-04-03T18:27:14.249Z,70.35
2024-04-03T18:29:45.909Z,70.45
2024-04-03T18:32:13.142Z,70.68
2024-04-03T18:34:43.687Z,70.68
2024-04-03T18:37:10.107Z,70.67
2024-04-03T18:39:36.748Z,70.51
2024-04-03T18:42:04.149Z,70.21
2024-04-03T18:44:30.697Z,70.21
2024-04-03T18:46:57.181Z,70.09
2024-04-03T18:49:24.945Z,70.22
2024-04-03T18:51:51.941Z,70.12
2024-04-03T18:54:18.626Z,70.00
2024-04-03T18:56:45.879Z,69.89
2024-04-03T18:59:14.163Z,69.88
2024-04-03T19:01:42.614Z,69.76
2024-04-03T19:04:11.538Z,69.56
2024-04-03T19:06:38.131Z,69.79
2024-04-03T19:09:04.701Z,69.69
2024-04-03T19:11:32.762Z,69.60
2024-04-03T19:13:59.487Z,69.27
2024-04-03T19:16:26.100Z,69.21
2024-04-03T19:18:52.763Z,69.34
2024-04-03T19:21:19.206Z,69.06
2024-04-03T19:23:45.876Z,69.04
2024-04-03T19:26:12.409Z,69.21
2024-04-03T19:28:39.368Z,69.01
2024-04-03T19:31:06.490Z,68.96
2024-04-03T19:33:36.559Z,68.99
2024-04-03T19:36:06.170Z,68.99
2024-04-03T19:38:36.217Z,68.93
2024-04-03T19:41:06.425Z,68.98
2024-04-03T19:43:33.238Z,69.00
2024-04-03T19:46:00.324Z,68.98
2024-04-03T19:48:27.167Z,68.93
2024-04-03T19:50:53.981Z,68.78
2024-04-03T19:53:20.686Z,68.71
2024-04-03T19:55:47.970Z,68.50
2024-04-03T19:58:14.511Z,68.64
2024-04-03T20:00:44.102Z,68.81
2024-04-03T20:03:11.200Z,68.83
2024-04-03T20:05:40.591Z,68.69
2024-04-03T20:08:10.995Z,68.52
2024-04-03T20:10:47.141Z,68.54
2024-04-03T20:13:17.099Z,68.35
2024-04-03T20:15:46.879Z,68.39
2024-04-03T20:18:13.677Z,68.38
2024-04-03T20:20:45.725Z,68.34
2024-04-03T20:23:13.433Z,68.32
2024-04-03T20:25:46.262Z,68.23
2024-04-03T20:28:14.604Z,68.13
2024-04-03T20:30:42.998Z,68.10
2024-04-03T20:33:11.056Z,68.02
2024-04-03T20:35:47.131Z,68.11
2024-04-03T20:38:14.094Z,68.09
2024-04-03T20:40:42.513Z,68.01
2024-04-03T20:43:09.058Z,67.84
2024-04-03T20:45:36.790Z,68.32
2024-04-03T20:48:04.292Z,68.63
2024-04-03T20:50:30.774Z,68.71
2024-04-03T20:52:57.305Z,68.90
2024-04-03T20:55:26.786Z,69.29
2024-04-03T20:57:54.705Z,69.50
2024-04-03T21:00:21.346Z,69.72
2024-04-03T21:02:47.889Z,69.86
2024-04-03T21:05:15.100Z,70.11
2024-04-03T21:07:43.048Z,70.25
2024-04-03T21:10:11.153Z,70.26
2024-04-03T21:12:40.754Z,70.22
2024-04-03T21:15:08.409Z,70.31
2024-04-03T21:17:36.014Z,70.14
2024-04-03T21:20:03.455Z,70.08
2024-04-03T21:22:30.032Z,70.02
2024-04-03T21:24:56.493Z,70.09
2024-04-03T21:27:23.100Z,69.93
2024-04-03T21:29:53.968Z,70.20
2024-04-03T21:32:20.761Z,70.14
2024-04-03T21:34:47.497Z,70.16
2024-04-03T21:37:15.649Z,70.22
2024-04-03T21:39:46.191Z,70.17
2024-04-03T21:42:13.244Z,69.89
2024-04-03T21:44:40.052Z,69.73
2024-04-03T21:47:06.647Z,69.80
2024-04-03T21:49:33.362Z,69.95
2024-04-03T21:51:59.822Z,69.57
2024-04-03T21:54:26.353Z,69.52
2024-04-03T21:56:52.809Z,69.38
2024-04-03T21:59:19.346Z,69.32
2024-04-03T22:01:45.852Z,69.27
2024-04-03T22:04:12.322Z,69.27
2024-04-03T22:06:38.751Z,69.11
2024-04-03T22:09:05.279Z,68.80
2024-04-03T22:11:31.819Z,68.83
2024-04-03T22:13:58.354Z,68.74
2024-04-03T22:16:24.812Z,68.74
2024-04-03T22:18:51.339Z,68.61
2024-04-03T22:21:17.974Z,68.57
2024-04-03T22:23:44.433Z,68.50
2024-04-03T22:26:10.904Z,68.44
2024-04-03T22:28:37.386Z,68.44
2024-04-03T22:31:04.216Z,68.43
2024-04-03T22:33:30.733Z,68.28
2024-04-03T22:35:57.388Z,68.11
2024-04-03T22:38:24.048Z,67.89
2024-04-03T22:40:50.548Z,67.89
2024-04-03T22:43:17.171Z,67.84
2024-04-03T22:45:43.809Z,67.60
2024-04-03T22:48:10.308Z,67.58
2024-04-03T22:50:36.843Z,67.49
2024-04-03T22:53:04.460Z,67.29
2024-04-03T22:55:30.922Z,67.14
2024-04-03T22:57:57.401Z,67.00
2024-04-03T23:00:27.576Z,66.92
2024-04-03T23:02:54.347Z,66.82
2024-04-03T23:05:20.867Z,66.73
2024-04-03T23:07:47.394Z,66.63
2024-04-03T23:10:14.032Z,66.54
2024-04-03T23:12:40.603Z,66.44
2024-04-03T23:15:07.616Z,66.39
2024-04-03T23:17:36.383Z,66.31
2024-04-03T23:20:04.389Z,66.29
2024-04-03T23:22:30.949Z,66.22
2024-04-03T23:24:57.662Z,66.12
2024-04-03T23:27:24.105Z,66.00
2024-04-03T23:29:50.612Z,66.02
2024-04-03T23:32:23.340Z,65.97
2024-04-03T23:34:50.103Z,66.04
2024-04-03T23:37:17.734Z,65.92
2024-04-03T23:39:44.291Z,65.82
2024-04-03T23:42:10.794Z,65.66
2024-04-03T23:44:37.292Z,65.52
2024-04-03T23:47:04.442Z,65.48
2024-04-03T23:49:30.982Z,65.50
2024-04-03T23:51:57.513Z,65.43
2024-04-03T23:54:24.075Z,65.31
2024-04-03T23:56:50.547Z,65.33
2024-04-03T23:59:17.046Z,65.24
